createdAt,value
2018-09-20T00:01:13.210Z,100389.62
2018-09-20T00:03:41.665Z,100385.51
2018-09-20T00:06:10.088Z,100383.37
2018-09-20T00:08:38.524Z,100381.21
2018-09-20T00:11:07.165Z,100382.03
2018-09-20T00:13:35.657Z,100387.34
2018-09-20T00:16:04.105Z,100376.97
2018-09-20T00:18:32.593Z,100376.83
2018-09-20T00:21:00.994Z,100371.69
2018-09-20T00:23:29.423Z,100369.82
2018-09-20T00:25:57.882Z,100366.80
2018-09-20T00:28:26.306Z,100367.11
2018-09-20T00:30:54.721Z,100367.92
2018-09-20T00:33:23.165Z,100368.20
2018-09-20T00:35:51.686Z,100373.11
2018-09-20T00:38:20.175Z,100367.45
2018-09-20T00:40:48.627Z,100363.36
2018-09-20T00:43:17.057Z,100365.85
2018-09-20T00:45:45.478Z,100363.06
2018-09-20T00:48:13.881Z,100362.84
2018-09-20T00:50:42.298Z,100359.02
2018-09-20T00:53:10.728Z,100361.47
2018-09-20T00:55:39.176Z,100360.39
2018-09-20T00:58:07.586Z,100364.24
2018-09-20T01:00:36.036Z,100366.45
2018-09-20T01:03:04.447Z,100366.22
2018-09-20T01:05:32.878Z,100363.52
2018-09-20T01:08:01.307Z,100369.80
2018-09-20T01:10:29.741Z,100366.45
2018-09-20T01:12:58.162Z,100368.08
2018-09-20T01:15:26.602Z,100364.84
2018-09-20T01:17:55.071Z,100361.30
2018-09-20T01:20:23.555Z,100363.77
2018-09-20T01:22:51.989Z,100364.56
2018-09-20T01:25:20.401Z,100359.09
2018-09-20T01:27:48.890Z,100361.32
2018-09-20T01:30:17.314Z,100357.59
2018-09-20T01:32:45.759Z,100362.00
2018-09-20T01:35:14.208Z,100358.78
2018-09-20T01:37:42.689Z,100362.11
2018-09-20T01:40:11.084Z,100356.67
2018-09-20T01:42:39.472Z,100350.95
2018-09-20T01:45:07.962Z,100359.73
2018-09-20T01:47:36.368Z,100358.38
2018-09-20T01:50:05.147Z,100357.30
2018-09-20T01:52:33.538Z,100361.12
2018-09-20T01:55:01.958Z,100359.22
2018-09-20T01:57:30.362Z,100356.23
2018-09-20T01:59:58.841Z,100358.44
2018-09-20T02:02:27.259Z,100361.17
2018-09-20T02:04:56.857Z,100356.28
2018-09-20T02:07:25.290Z,100359.81
2018-09-20T02:09:53.713Z,100355.47
2018-09-20T02:12:22.145Z,100358.73
2018-09-20T02:14:50.554Z,100363.12
2018-09-20T02:17:18.951Z,100360.09
2018-09-20T02:19:48.359Z,100367.75
2018-09-20T02:22:16.747Z,100372.09
2018-09-20T02:24:45.192Z,100374.54
2018-09-20T02:27:13.592Z,100382.98
2018-09-20T02:29:41.998Z,100387.66
2018-09-20T02:32:10.413Z,100381.11
2018-09-20T02:34:38.850Z,100381.66
2018-09-20T02:37:07.257Z,100387.12
2018-09-20T02:39:35.682Z,100380.86
2018-09-20T02:42:04.114Z,100380.83
2018-09-20T02:44:32.541Z,100373.17
2018-09-20T02:47:00.974Z,100375.08
2018-09-20T02:49:29.379Z,100377.81
2018-09-20T02:51:57.930Z,100374.00
2018-09-20T02:54:26.446Z,100370.44
2018-09-20T02:56:55.013Z,100370.97
2018-09-20T02:59:23.515Z,100367.94
2018-09-20T03:01:52.038Z,100361.88
2018-09-20T03:04:20.560Z,100369.80
2018-09-20T03:06:49.175Z,100361.58
2018-09-20T03:09:17.668Z,100362.67
2018-09-20T03:11:46.241Z,100361.02
2018-09-20T03:14:14.787Z,100366.77
2018-09-20T03:16:43.398Z,100365.10
2018-09-20T03:19:11.931Z,100361.81
2018-09-20T03:21:40.494Z,100361.80
2018-09-20T03:24:09.061Z,100353.52
2018-09-20T03:26:37.660Z,100356.81
2018-09-20T03:29:06.301Z,100350.50
2018-09-20T03:31:34.833Z,100349.72
2018-09-20T03:34:05.497Z,100348.38
2018-09-20T03:36:33.904Z,100342.67
2018-09-20T03:39:02.338Z,100339.88
2018-09-20T03:41:30.772Z,100350.05
2018-09-20T03:43:59.191Z,100344.34
2018-09-20T03:46:30.926Z,100343.25
2018-09-20T03:48:59.530Z,100347.66
2018-09-20T03:51:28.073Z,100351.47
2018-09-20T03:53:56.610Z,100345.19
2018-09-20T03:56:25.190Z,100343.57
2018-09-20T03:58:53.763Z,100339.20
2018-09-20T04:01:22.351Z,100342.22
2018-09-20T04:03:50.981Z,100346.61
2018-09-20T04:06:19.877Z,100341.81
2018-09-20T04:08:48.528Z,100341.56
2018-09-20T04:11:17.062Z,100342.41
2018-09-20T04:13:45.702Z,100339.14
2018-09-20T04:16:14.085Z,100348.67
2018-09-20T04:18:42.541Z,100347.34
2018-09-20T04:21:11.184Z,100350.84
2018-09-20T04:23:39.852Z,100349.19
2018-09-20T04:26:08.423Z,100351.92
2018-09-20T04:28:37.105Z,100352.78
2018-09-20T04:31:05.676Z,100354.41
2018-09-20T04:33:34.214Z,100356.07
2018-09-20T04:36:02.814Z,100364.23
2018-09-20T04:38:31.362Z,100358.24
2018-09-20T04:41:00.027Z,100362.34
2018-09-20T04:43:28.630Z,100356.05
2018-09-20T04:45:57.214Z,100356.60
2018-09-20T04:48:25.820Z,100352.20
2018-09-20T04:50:54.409Z,100356.84
2018-09-20T04:53:23.009Z,100352.75
2018-09-20T04:55:51.587Z,100360.11
2018-09-20T04:58:20.173Z,100359.84
2018-09-20T05:00:48.810Z,100357.91
2018-09-20T05:03:17.438Z,100362.81
2018-09-20T05:05:46.170Z,100365.78
2018-09-20T05:08:14.895Z,100364.69
2018-09-20T05:10:43.513Z,100367.41
2018-09-20T05:13:12.153Z,100359.77
2018-09-20T05:15:40.723Z,100360.05
2018-09-20T05:18:09.365Z,100364.97
2018-09-20T05:20:38.052Z,100358.41
2018-09-20T05:23:06.711Z,100363.34
2018-09-20T05:25:35.313Z,100369.08
2018-09-20T05:28:03.919Z,100363.06
2018-09-20T05:30:32.538Z,100353.25
2018-09-20T05:33:01.122Z,100361.99
2018-09-20T05:35:29.857Z,100356.27
2018-09-20T05:37:58.465Z,100358.45
2018-09-20T05:40:27.147Z,100356.81
2018-09-20T05:42:55.856Z,100357.66
2018-09-20T05:45:24.450Z,100356.81
2018-09-20T05:47:52.966Z,100351.39
2018-09-20T05:50:23.574Z,100354.91
2018-09-20T05:52:52.124Z,100347.02
2018-09-20T05:55:20.633Z,100357.70
2018-09-20T05:57:49.250Z,100358.77
2018-09-20T06:00:17.854Z,100361.23
2018-09-20T06:02:46.506Z,100354.67
2018-09-20T06:05:15.055Z,100362.29
2018-09-20T06:07:43.747Z,100357.91
2018-09-20T06:10:12.301Z,100364.68
2018-09-20T06:12:40.946Z,100369.00
2018-09-20T06:15:09.433Z,100364.02
2018-09-20T06:17:37.961Z,100364.42
2018-09-20T06:20:06.476Z,100367.67
2018-09-20T06:22:34.898Z,100367.79
2018-09-20T06:25:03.309Z,100361.01
2018-09-20T06:27:31.762Z,100368.14
2018-09-20T06:30:00.219Z,100361.91
2018-09-20T06:32:28.797Z,100364.74
2018-09-20T06:34:57.297Z,100358.49
2018-09-20T06:37:25.669Z,100359.90
2018-09-20T06:39:54.157Z,100363.92
2018-09-20T06:42:22.611Z,100373.20
2018-09-20T06:44:50.990Z,100375.17
2018-09-20T06:47:19.429Z,100365.63
2018-09-20T06:49:47.882Z,100380.39
2018-09-20T06:52:16.374Z,100379.03
2018-09-20T06:54:44.816Z,100377.58
2018-09-20T06:57:13.221Z,100374.50
2018-09-20T06:59:41.815Z,100378.12
2018-09-20T07:02:11.233Z,100381.24
2018-09-20T07:04:39.635Z,100386.59
2018-09-20T07:07:08.119Z,100382.47
2018-09-20T07:09:36.536Z,100385.84
2018-09-20T07:12:04.989Z,100378.08
2018-09-20T07:14:33.423Z,100380.61
2018-09-20T07:17:02.109Z,100385.63
2018-09-20T07:19:30.558Z,100385.34
2018-09-20T07:21:59.000Z,100383.70
2018-09-20T07:24:27.442Z,100377.38
2018-09-20T07:26:55.820Z,100379.69
2018-09-20T07:29:24.381Z,100369.27
2018-09-20T07:31:52.789Z,100365.95
2018-09-20T07:34:21.197Z,100374.39
2018-09-20T07:36:49.657Z,100368.78
2018-09-20T07:39:18.133Z,100375.12
2018-09-20T07:41:46.527Z,100370.61
2018-09-20T07:44:14.926Z,100374.81
2018-09-20T07:46:43.313Z,100380.35
2018-09-20T07:49:11.705Z,100388.39
2018-09-20T07:51:40.113Z,100386.94
2018-09-20T07:54:08.527Z,100382.66
2018-09-20T07:56:36.965Z,100384.88
2018-09-20T07:59:05.385Z,100373.92
2018-09-20T08:04:01.190Z,100371.88
2018-09-20T08:06:29.690Z,100374.97
2018-09-20T08:08:58.214Z,100380.98
2018-09-20T08:11:26.718Z,100382.14
2018-09-20T08:13:55.139Z,100376.77
2018-09-20T08:16:23.533Z,100377.09
2018-09-20T08:18:52.005Z,100365.64
2018-09-20T08:21:20.439Z,100375.53
2018-09-20T08:23:48.911Z,100376.51
2018-09-20T08:26:17.317Z,100370.83
2018-09-20T08:28:45.911Z,100368.06
2018-09-20T08:31:14.355Z,100374.00
2018-09-20T08:33:42.774Z,100378.14
2018-09-20T08:36:11.190Z,100375.45
2018-09-20T08:38:39.620Z,100384.41
2018-09-20T08:41:08.174Z,100387.32
2018-09-20T08:43:37.712Z,100379.93
2018-09-20T08:46:06.110Z,100384.73
2018-09-20T08:48:34.542Z,100386.20
2018-09-20T08:51:03.007Z,100380.59
2018-09-20T08:53:31.458Z,100387.23
2018-09-20T08:55:59.966Z,100382.52
2018-09-20T08:58:31.923Z,100379.70
2018-09-20T09:01:01.406Z,100382.52
2018-09-20T09:03:29.983Z,100381.88
2018-09-20T09:05:58.513Z,100374.75
2018-09-20T09:08:26.995Z,100375.25
2018-09-20T09:10:55.453Z,100377.87
2018-09-20T09:13:23.915Z,100372.84
2018-09-20T09:15:52.325Z,100366.69
2018-09-20T09:18:20.762Z,100363.53
2018-09-20T09:20:49.305Z,100356.34
2018-09-20T09:23:17.737Z,100352.12
2018-09-20T09:25:46.149Z,100341.49
2018-09-20T09:28:14.726Z,100338.98
2018-09-20T09:30:43.122Z,100340.86
2018-09-20T09:33:11.489Z,100347.59
2018-09-20T09:35:39.938Z,100346.83
2018-09-20T09:38:08.386Z,100350.11
2018-09-20T09:40:36.923Z,100349.47
2018-09-20T09:43:05.346Z,100347.63
2018-09-20T09:45:33.828Z,100332.77
2018-09-20T09:48:02.307Z,100336.41
2018-09-20T09:50:30.673Z,100329.10
2018-09-20T09:52:59.104Z,100314.74
2018-09-20T09:55:27.513Z,100328.61
2018-09-20T09:57:55.925Z,100313.55
2018-09-20T10:00:29.629Z,100324.72
2018-09-20T10:02:58.849Z,100310.67
2018-09-20T10:05:27.337Z,100329.10
2018-09-20T10:07:56.233Z,100333.44
2018-09-20T10:10:24.692Z,100328.15
2018-09-20T10:12:53.114Z,100317.05
2018-09-20T10:15:21.575Z,100317.55
2018-09-20T10:17:49.995Z,100323.56
2018-09-20T10:20:19.186Z,100321.07
2018-09-20T10:22:47.602Z,100308.34
2018-09-20T10:25:16.029Z,100304.41
2018-09-20T10:27:44.477Z,100306.02
2018-09-20T10:30:12.897Z,100304.71
2018-09-20T10:32:41.390Z,100303.57
2018-09-20T10:35:09.853Z,100302.47
2018-09-20T10:37:38.726Z,100302.54
2018-09-20T10:40:07.264Z,100303.11
2018-09-20T10:42:35.657Z,100303.36
2018-09-20T10:45:04.166Z,100297.36
2018-09-20T10:47:32.560Z,100288.45
2018-09-20T10:50:01.031Z,100285.78
2018-09-20T10:52:29.421Z,100289.27
2018-09-20T10:54:57.889Z,100288.70
2018-09-20T10:57:26.317Z,100274.23
2018-09-20T10:59:54.746Z,100283.44
2018-09-20T11:02:23.166Z,100274.44
2018-09-20T11:04:51.646Z,100275.61
2018-09-20T11:07:20.200Z,100271.33
2018-09-20T11:09:48.741Z,100274.13
2018-09-20T11:12:17.248Z,100267.30
2018-09-20T11:14:45.701Z,100256.19
2018-09-20T11:17:14.493Z,100262.20
2018-09-20T11:19:43.869Z,100256.16
2018-09-20T11:22:12.447Z,100259.18
2018-09-20T11:24:40.895Z,100250.21
2018-09-20T11:27:09.350Z,100247.25
2018-09-20T11:29:37.769Z,100247.28
2018-09-20T11:32:06.195Z,100244.34
2018-09-20T11:34:34.854Z,100229.10
2018-09-20T11:37:03.284Z,100227.50
2018-09-20T11:39:31.887Z,100232.72
2018-09-20T11:42:06.737Z,100230.37
2018-09-20T11:44:35.182Z,100227.71
2018-09-20T11:47:03.606Z,100220.46
2018-09-20T11:49:32.065Z,100212.82
2018-09-20T11:52:00.486Z,100231.09
2018-09-20T11:54:29.354Z,100228.25
2018-09-20T11:56:58.306Z,100225.34
2018-09-20T11:59:26.790Z,100224.59
2018-09-20T12:01:55.289Z,100215.83
2018-09-20T12:04:23.850Z,100209.50
2018-09-20T12:06:52.351Z,100213.09
2018-09-20T12:09:20.805Z,100206.98
2018-09-20T12:11:49.231Z,100210.95
2018-09-20T12:14:17.679Z,100205.06
2018-09-20T12:16:46.097Z,100206.00
2018-09-20T12:19:14.682Z,100197.68
2018-09-20T12:21:43.110Z,100200.63
2018-09-20T12:24:11.539Z,100210.55
2018-09-20T12:26:39.994Z,100201.45
2018-09-20T12:29:09.390Z,100201.96
2018-09-20T12:31:37.919Z,100188.53
2018-09-20T12:34:06.381Z,100185.98
2018-09-20T12:36:34.824Z,100185.98
2018-09-20T12:39:04.764Z,100180.63
2018-09-20T12:41:33.177Z,100175.04
2018-09-20T12:44:01.666Z,100173.59
2018-09-20T12:46:30.110Z,100167.64
2018-09-20T12:48:58.492Z,100161.02
2018-09-20T12:51:26.917Z,100151.71
2018-09-20T12:53:55.366Z,100142.22
2018-09-20T12:56:23.801Z,100147.45
2018-09-20T12:58:52.542Z,100155.17
2018-09-20T13:01:22.080Z,100139.70
2018-09-20T13:03:51.144Z,100151.06
2018-09-20T13:06:19.729Z,100143.45
2018-09-20T13:08:48.141Z,100134.75
2018-09-20T13:11:16.633Z,100134.05
2018-09-20T13:13:45.034Z,100128.48
2018-09-20T13:16:13.477Z,100129.54
2018-09-20T13:18:41.866Z,100114.45
2018-09-20T13:21:10.699Z,100119.52
2018-09-20T13:23:39.169Z,100114.34
2018-09-20T13:26:07.781Z,100110.68
2018-09-20T13:28:36.185Z,100112.25
2018-09-20T13:31:04.641Z,100110.13
2018-09-20T13:33:33.078Z,100102.63
2018-09-20T13:36:01.564Z,100100.60
2018-09-20T13:38:29.986Z,100089.38
2018-09-20T13:40:58.466Z,100092.19
2018-09-20T13:43:27.004Z,100086.55
2018-09-20T13:45:55.453Z,100082.95
2018-09-20T13:48:24.066Z,100076.95
2018-09-20T13:50:52.608Z,100076.81
2018-09-20T13:53:21.073Z,100076.98
2018-09-20T13:55:49.506Z,100067.83
2018-09-20T13:58:17.985Z,100080.09
2018-09-20T14:00:46.481Z,100075.49
2018-09-20T14:03:15.925Z,100068.13
2018-09-20T14:05:44.324Z,100067.90
2018-09-20T14:08:12.778Z,100067.35
2018-09-20T14:10:41.206Z,100058.39
2018-09-20T14:13:09.685Z,100056.27
2018-09-20T14:15:38.141Z,100054.07
2018-09-20T14:18:06.519Z,100052.44
2018-09-20T14:20:34.989Z,100053.48
2018-09-20T14:23:03.450Z,100051.31
2018-09-20T14:25:31.854Z,100046.70
2018-09-20T14:28:00.287Z,100039.48
2018-09-20T14:30:28.666Z,100033.21
2018-09-20T14:32:57.116Z,100031.19
2018-09-20T14:35:25.603Z,100020.94
2018-09-20T14:37:54.074Z,100020.78
2018-09-20T14:40:22.489Z,100017.56
2018-09-20T14:42:50.958Z,100020.34
2018-09-20T14:45:19.474Z,100010.55
2018-09-20T14:47:47.879Z,100009.16
2018-09-20T14:50:16.278Z,100000.37
2018-09-20T14:52:44.739Z,100006.70
2018-09-20T14:55:13.169Z,99995.59
2018-09-20T14:57:41.557Z,99992.52
2018-09-20T15:00:10.017Z,99990.17
2018-09-20T15:02:38.441Z,99993.22
2018-09-20T15:05:07.098Z,99989.59
2018-09-20T15:07:35.557Z,99986.83
2018-09-20T15:10:04.041Z,99985.09
2018-09-20T15:12:32.538Z,99985.13
2018-09-20T15:15:00.956Z,99975.70
2018-09-20T15:17:29.354Z,99981.06
2018-09-20T15:19:57.818Z,99985.47
2018-09-20T15:22:26.283Z,99977.02
2018-09-20T15:24:54.694Z,99976.06
2018-09-20T15:27:23.131Z,99969.34
2018-09-20T15:29:51.549Z,99962.91
2018-09-20T15:32:19.993Z,99952.44
2018-09-20T15:34:48.373Z,99957.63
2018-09-20T15:37:16.829Z,99952.73
2018-09-20T15:39:45.238Z,99948.80
2018-09-20T15:42:13.645Z,99953.44
2018-09-20T15:44:42.084Z,99945.95
2018-09-20T15:47:10.510Z,99947.80
2018-09-20T15:49:38.922Z,99937.81
2018-09-20T15:52:07.328Z,99937.83
2018-09-20T15:54:35.841Z,99935.19
2018-09-20T15:57:04.380Z,99938.11
2018-09-20T15:59:32.784Z,99939.69
2018-09-20T16:02:01.149Z,99931.27
2018-09-20T16:04:29.593Z,99936.41
2018-09-20T16:06:58.065Z,99930.04
2018-09-20T16:09:26.450Z,99928.30
2018-09-20T16:11:54.880Z,99932.37
2018-09-20T16:14:23.350Z,99922.50
2018-09-20T16:16:51.755Z,99924.80
2018-09-20T16:19:20.190Z,99923.56
2018-09-20T16:21:48.557Z,99922.11
2018-09-20T16:24:16.992Z,99928.42
2018-09-20T16:26:45.408Z,99922.36
2018-09-20T16:29:23.148Z,99919.48
2018-09-20T16:34:03.607Z,99917.55
2018-09-20T16:36:39.690Z,99911.61
2018-09-20T16:39:12.554Z,99906.73
2018-09-20T16:41:42.311Z,99900.36
2018-09-20T16:44:11.055Z,99896.31
2018-09-20T16:46:39.498Z,99895.97
2018-09-20T16:49:07.957Z,99888.77
2018-09-20T16:51:36.333Z,99890.97
2018-09-20T16:54:04.738Z,99892.80
2018-09-20T16:56:33.202Z,99887.59
2018-09-20T16:59:01.681Z,99888.63
2018-09-20T17:01:30.155Z,99879.01
2018-09-20T17:03:58.612Z,99883.39
2018-09-20T17:06:27.061Z,99885.23
2018-09-20T17:08:55.501Z,99881.09
2018-09-20T17:11:23.890Z,99878.98
2018-09-20T17:13:52.349Z,99877.45
2018-09-20T17:16:20.850Z,99876.19
2018-09-20T17:18:49.221Z,99878.30
2018-09-20T17:21:17.663Z,99876.56
2018-09-20T17:23:46.129Z,99868.41
2018-09-20T17:26:14.618Z,99872.95
2018-09-20T17:28:43.078Z,99876.59
2018-09-20T17:31:11.482Z,99879.58
2018-09-20T17:33:39.923Z,99871.27
2018-09-20T17:36:08.509Z,99863.67
2018-09-20T17:38:37.442Z,99865.06
2018-09-20T17:41:08.938Z,99866.48
2018-09-20T17:43:43.858Z,99859.47
2018-09-20T17:46:12.337Z,99855.09
2018-09-20T17:48:40.853Z,99857.04
2018-09-20T17:51:10.241Z,99857.80
2018-09-20T17:53:38.932Z,99851.98
2018-09-20T17:56:07.981Z,99853.72
2018-09-20T17:58:37.338Z,99850.38
2018-09-20T18:01:05.782Z,99853.56
2018-09-20T18:03:34.226Z,99853.36
2018-09-20T18:06:02.744Z,99855.80
2018-09-20T18:08:31.206Z,99857.55
2018-09-20T18:10:59.654Z,99849.41
2018-09-20T18:13:28.089Z,99843.62
2018-09-20T18:15:56.499Z,99848.30
2018-09-20T18:18:25.009Z,99845.24
2018-09-20T18:20:53.352Z,99850.30
2018-09-20T18:23:21.793Z,99847.30
2018-09-20T18:25:50.253Z,99842.03
2018-09-20T18:28:18.852Z,99834.95
2018-09-20T18:30:47.276Z,99840.55
2018-09-20T18:33:15.685Z,99838.05
2018-09-20T18:35:44.194Z,99833.91
2018-09-20T18:38:12.770Z,99825.34
2018-09-20T18:40:41.195Z,99826.82
2018-09-20T18:43:09.611Z,99826.45
2018-09-20T18:45:38.045Z,99822.67
2018-09-20T18:48:06.481Z,99827.46
2018-09-20T18:50:34.918Z,99817.94
2018-09-20T18:53:03.333Z,99816.08
2018-09-20T18:55:32.856Z,99818.45
2018-09-20T18:58:01.293Z,99801.99
2018-09-20T19:00:29.719Z,99808.08
2018-09-20T19:02:59.180Z,99803.19
2018-09-20T19:05:27.615Z,99803.94
2018-09-20T19:07:56.062Z,99809.78
2018-09-20T19:10:24.517Z,99811.61
2018-09-20T19:13:22.615Z,99807.78
2018-09-20T19:15:51.035Z,99801.19
2018-09-20T19:18:19.436Z,99793.04
2018-09-20T19:20:47.966Z,99791.62
2018-09-20T19:23:16.355Z,99781.86
2018-09-20T19:25:44.856Z,99785.20
2018-09-20T19:28:13.258Z,99786.06
2018-09-20T19:30:41.669Z,99782.49
2018-09-20T19:33:10.077Z,99781.95
2018-09-20T19:35:38.533Z,99779.55
2018-09-20T19:38:06.937Z,99770.02
2018-09-20T19:40:35.443Z,99770.80
2018-09-20T19:43:03.908Z,99773.17
2018-09-20T19:45:32.395Z,99768.14
2018-09-20T19:48:00.839Z,99764.87
2018-09-20T19:50:29.309Z,99761.48
2018-09-20T19:52:57.761Z,99759.32
2018-09-20T19:55:26.183Z,99759.88
2018-09-20T19:57:54.602Z,99760.14
2018-09-20T20:00:23.108Z,99758.75
2018-09-20T20:02:51.461Z,99760.58
2018-09-20T20:05:19.950Z,99752.80
2018-09-20T20:07:48.390Z,99756.81
2018-09-20T20:10:16.806Z,99758.95
2018-09-20T20:12:45.261Z,99749.45
2018-09-20T20:15:13.739Z,99753.71
2018-09-20T20:17:42.249Z,99753.52
2018-09-20T20:20:10.706Z,99747.34
2018-09-20T20:22:39.117Z,99744.52
2018-09-20T20:25:07.554Z,99733.77
2018-09-20T20:27:39.142Z,99731.73
2018-09-20T20:30:07.592Z,99742.64
2018-09-20T20:32:36.057Z,99736.02
2018-09-20T20:35:04.441Z,99723.03
2018-09-20T20:37:32.897Z,99726.14
2018-09-20T20:40:01.375Z,99725.28
2018-09-20T20:42:29.823Z,99717.94
2018-09-20T20:44:58.274Z,99708.84
2018-09-20T20:47:26.709Z,99714.32
2018-09-20T20:49:55.334Z,99701.63
2018-09-20T20:52:23.765Z,99704.89
2018-09-20T20:54:52.182Z,99702.70
2018-09-20T20:57:20.629Z,99693.70
2018-09-20T20:59:49.079Z,99694.48
2018-09-20T21:02:17.525Z,99695.69
2018-09-20T21:04:46.119Z,99692.23
2018-09-20T21:07:14.558Z,99689.18
2018-09-20T21:09:43.142Z,99694.95
2018-09-20T21:12:11.586Z,99688.96
2018-09-20T21:14:40.051Z,99685.25
2018-09-20T21:17:08.457Z,99689.81
2018-09-20T21:19:36.880Z,99686.44
2018-09-20T21:22:05.361Z,99685.61
2018-09-20T21:24:34.675Z,99684.09
2018-09-20T21:27:03.212Z,99676.89
2018-09-20T21:29:31.660Z,99677.14
2018-09-20T21:32:00.069Z,99664.77
2018-09-20T21:34:28.458Z,99659.27
2018-09-20T21:36:56.909Z,99658.37
2018-09-20T21:39:25.314Z,99650.09
2018-09-20T21:41:53.752Z,99646.05
2018-09-20T21:44:22.225Z,99640.00
2018-09-20T21:46:55.788Z,99639.35
2018-09-20T21:49:24.316Z,99646.31
2018-09-20T21:51:52.718Z,99644.88
2018-09-20T21:54:21.085Z,99642.95
2018-09-20T21:56:49.529Z,99642.47
2018-09-20T21:59:18.066Z,99647.31
2018-09-20T22:01:51.734Z,99630.25
2018-09-20T22:04:20.125Z,99633.31
2018-09-20T22:06:48.611Z,99636.47
2018-09-20T22:09:17.036Z,99627.16
2018-09-20T22:11:45.448Z,99619.20
2018-09-20T22:14:13.841Z,99608.36
2018-09-20T22:16:42.245Z,99614.34
2018-09-20T22:19:10.689Z,99606.98
2018-09-20T22:21:39.133Z,99609.72
2018-09-20T22:24:07.538Z,99611.52
2018-09-20T22:26:36.090Z,99600.45
2018-09-20T22:29:04.578Z,99596.73
2018-09-20T22:31:33.053Z,99588.78
2018-09-20T22:34:01.597Z,99596.87
2018-09-20T22:36:30.017Z,99588.94
2018-09-20T22:38:58.473Z,99589.94
2018-09-20T22:41:26.913Z,99590.16
2018-09-20T22:43:55.292Z,99579.57
2018-09-20T22:46:23.724Z,99581.35
2018-09-20T22:48:52.116Z,99572.37
2018-09-20T22:51:20.557Z,99560.48
2018-09-20T22:53:49.075Z,99552.91
2018-09-20T22:56:17.936Z,99550.23
2018-09-20T22:58:46.342Z,99539.95
2018-09-20T23:01:16.932Z,99538.50
2018-09-20T23:03:45.885Z,99534.19
2018-09-20T23:06:14.330Z,99533.48
2018-09-20T23:08:42.825Z,99529.63
2018-09-20T23:11:11.266Z,99527.84
2018-09-20T23:13:39.705Z,99512.41
2018-09-20T23:16:08.137Z,99519.30
2018-09-20T23:18:36.551Z,99519.34
2018-09-20T23:21:05.078Z,99518.69
2018-09-20T23:23:33.500Z,99510.98
2018-09-20T23:26:01.909Z,99513.75
2018-09-20T23:28:30.334Z,99506.88
2018-09-20T23:30:58.813Z,99500.89
2018-09-20T23:33:27.343Z,99506.45
2018-09-20T23:35:55.790Z,99498.21
2018-09-20T23:38:24.250Z,99497.28
2018-09-20T23:40:52.657Z,99501.92
2018-09-20T23:43:21.118Z,99495.81
2018-09-20T23:45:50.573Z,99497.41
2018-09-20T23:48:19.047Z,99496.63
2018-09-20T23:50:47.590Z,99490.02
2018-09-20T23:53:16.026Z,99495.19
2018-09-20T23:55:44.866Z,99492.72
2018-09-20T23:58:13.336Z,99491.91
